sensor_id;sensor_type;location;lat;lon;timestamp;P1;durP1;ratioP1;P2;durP2;ratioP2
3873;SDS011;1952;50.872;6.692;2023-07-24T00:02:27;5.60;;;5.10;;
3873;SDS011;1952;50.872;6.692;2023-07-24T00:04:55;5.87;;;4.87;;
3873;SDS011;1952;50.872;6.692;2023-07-24T00:07:23;6.93;;;5.10;;
3873;SDS011;1952;50.872;6.692;2023-07-24T00:09:51;10.27;;;6.43;;
3873;SDS011;1952;50.872;6.692;2023-07-24T00:12:21;5.63;;;4.83;;
3873;SDS011;1952;50.872;6.692;2023-07-24T00:14:49;6.97;;;5.27;;
3873;SDS011;1952;50.872;6.692;2023-07-24T00:17:21;6.60;;;5.50;;
3873;SDS011;1952;50.872;6.692;2023-07-24T00:57:15;6.57;;;5.33;;
3873;SDS011;1952;50.872;6.692;2023-07-24T00:59:44;8.00;;;5.50;;
3873;SDS011;1952;50.872;6.692;2023-07-24T01:02:12;6.30;;;4.80;;
3873;SDS011;1952;50.872;6.692;2023-07-24T01:04:41;10.63;;;5.73;;
3873;SDS011;1952;50.872;6.692;2023-07-24T01:07:09;9.10;;;6.10;;
3873;SDS011;1952;50.872;6.692;2023-07-24T01:09:38;7.60;;;5.90;;
3873;SDS011;1952;50.872;6.692;2023-07-24T01:12:07;9.20;;;5.90;;
3873;SDS011;1952;50.872;6.692;2023-07-24T01:14:44;5.87;;;5.10;;
3873;SDS011;1952;50.872;6.692;2023-07-24T01:17:19;7.47;;;5.90;;
3873;SDS011;1952;50.872;6.692;2023-07-24T01:19:52;8.50;;;6.13;;
3873;SDS011;1952;50.872;6.692;2023-07-24T01:22:25;7.43;;;5.87;;
3873;SDS011;1952;50.872;6.692;2023-07-24T01:25:04;8.30;;;6.03;;
3873;SDS011;1952;50.872;6.692;2023-07-24T01:27:41;9.13;;;6.17;;
3873;SDS011;1952;50.872;6.692;2023-07-24T01:30:10;6.57;;;5.97;;
3873;SDS011;1952;50.872;6.692;2023-07-24T01:32:38;7.57;;;5.80;;
3873;SDS011;1952;50.872;6.692;2023-07-24T01:35:07;7.67;;;5.40;;
3873;SDS011;1952;50.872;6.692;2023-07-24T01:37:35;7.27;;;5.60;;
3873;SDS011;1952;50.872;6.692;2023-07-24T01:40:06;6.00;;;5.50;;
3873;SDS011;1952;50.872;6.692;2023-07-24T01:42:34;7.00;;;5.10;;
3873;SDS011;1952;50.872;6.692;2023-07-24T01:45:05;6.50;;;5.87;;
3873;SDS011;1952;50.872;6.692;2023-07-24T01:47:33;10.13;;;5.97;;
3873;SDS011;1952;50.872;6.692;2023-07-24T01:50:02;6.10;;;5.50;;
3873;SDS011;1952;50.872;6.692;2023-07-24T01:52:31;10.40;;;5.63;;
3873;SDS011;1952;50.872;6.692;2023-07-24T01:54:59;11.07;;;5.50;;
3873;SDS011;1952;50.872;6.692;2023-07-24T01:57:27;7.33;;;5.30;;
3873;SDS011;1952;50.872;6.692;2023-07-24T01:59:55;7.57;;;4.90;;
3873;SDS011;1952;50.872;6.692;2023-07-24T02:02:24;10.47;;;6.30;;
3873;SDS011;1952;50.872;6.692;2023-07-24T02:04:52;8.53;;;5.40;;
3873;SDS011;1952;50.872;6.692;2023-07-24T02:07:21;7.03;;;5.13;;
3873;SDS011;1952;50.872;6.692;2023-07-24T02:09:49;7.13;;;5.47;;
3873;SDS011;1952;50.872;6.692;2023-07-24T02:12:17;6.93;;;5.30;;
3873;SDS011;1952;50.872;6.692;2023-07-24T02:14:45;8.80;;;6.30;;
3873;SDS011;1952;50.872;6.692;2023-07-24T02:17:15;8.17;;;5.63;;
3873;SDS011;1952;50.872;6.692;2023-07-24T02:19:45;9.60;;;6.07;;
3873;SDS011;1952;50.872;6.692;2023-07-24T02:22:13;11.93;;;6.40;;
3873;SDS011;1952;50.872;6.692;2023-07-24T02:24:41;9.13;;;6.40;;
3873;SDS011;1952;50.872;6.692;2023-07-24T02:27:11;8.50;;;5.40;;
3873;SDS011;1952;50.872;6.692;2023-07-24T02:29:40;11.53;;;6.30;;
3873;SDS011;1952;50.872;6.692;2023-07-24T02:32:08;7.50;;;6.20;;
3873;SDS011;1952;50.872;6.692;2023-07-24T02:34:35;8.10;;;5.73;;
3873;SDS011;1952;50.872;6.692;2023-07-24T02:37:05;5.90;;;5.30;;
3873;SDS011;1952;50.872;6.692;2023-07-24T02:39:33;6.83;;;6.13;;
3873;SDS011;1952;50.872;6.692;2023-07-24T02:42:01;11.10;;;6.50;;
3873;SDS011;1952;50.872;6.692;2023-07-24T02:44:29;11.93;;;6.50;;
3873;SDS011;1952;50.872;6.692;2023-07-24T02:46:57;10.00;;;5.43;;
3873;SDS011;1952;50.872;6.692;2023-07-24T02:49:26;10.37;;;6.33;;
3873;SDS011;1952;50.872;6.692;2023-07-24T02:51:54;8.80;;;6.27;;
3873;SDS011;1952;50.872;6.692;2023-07-24T02:54:24;8.17;;;6.50;;
3873;SDS011;1952;50.872;6.692;2023-07-24T02:56:52;8.27;;;7.30;;
3873;SDS011;1952;50.872;6.692;2023-07-24T02:59:20;7.53;;;5.53;;
3873;SDS011;1952;50.872;6.692;2023-07-24T03:01:49;8.77;;;6.67;;
3873;SDS011;1952;50.872;6.692;2023-07-24T03:04:17;10.83;;;5.97;;
3873;SDS011;1952;50.872;6.692;2023-07-24T03:06:46;11.63;;;6.17;;
3873;SDS011;1952;50.872;6.692;2023-07-24T03:09:14;7.87;;;5.50;;
3873;SDS011;1952;50.872;6.692;2023-07-24T03:11:44;11.70;;;6.23;;
3873;SDS011;1952;50.872;6.692;2023-07-24T03:14:13;9.40;;;5.70;;
3873;SDS011;1952;50.872;6.692;2023-07-24T03:16:41;7.30;;;6.60;;
3873;SDS011;1952;50.872;6.692;2023-07-24T03:19:09;12.00;;;5.83;;
3873;SDS011;1952;50.872;6.692;2023-07-24T03:21:37;9.00;;;5.17;;
3873;SDS011;1952;50.872;6.692;2023-07-24T03:24:05;15.40;;;9.67;;
3873;SDS011;1952;50.872;6.692;2023-07-24T03:26:34;8.80;;;5.83;;
3873;SDS011;1952;50.872;6.692;2023-07-24T03:29:04;6.10;;;5.50;;
3873;SDS011;1952;50.872;6.692;2023-07-24T03:31:32;7.80;;;5.50;;
3873;SDS011;1952;50.872;6.692;2023-07-24T03:34:00;7.93;;;6.20;;
3873;SDS011;1952;50.872;6.692;2023-07-24T03:36:28;7.63;;;5.27;;
3873;SDS011;1952;50.872;6.692;2023-07-24T03:38:57;7.93;;;6.37;;
3873;SDS011;1952;50.872;6.692;2023-07-24T03:41:24;8.23;;;5.47;;
3873;SDS011;1952;50.872;6.692;2023-07-24T03:43:55;11.63;;;5.90;;
3873;SDS011;1952;50.872;6.692;2023-07-24T03:46:24;8.63;;;5.27;;
3873;SDS011;1952;50.872;6.692;2023-07-24T03:48:53;5.93;;;5.07;;
3873;SDS011;1952;50.872;6.692;2023-07-24T03:51:21;8.77;;;6.27;;
3873;SDS011;1952;50.872;6.692;2023-07-24T03:53:49;8.03;;;5.67;;
3873;SDS011;1952;50.872;6.692;2023-07-24T03:56:20;7.17;;;5.57;;
3873;SDS011;1952;50.872;6.692;2023-07-24T03:58:48;6.80;;;4.73;;
3873;SDS011;1952;50.872;6.692;2023-07-24T04:01:16;7.30;;;5.63;;
3873;SDS011;1952;50.872;6.692;2023-07-24T04:03:47;6.27;;;5.20;;
3873;SDS011;1952;50.872;6.692;2023-07-24T04:06:15;8.13;;;5.43;;
3873;SDS011;1952;50.872;6.692;2023-07-24T04:08:43;8.50;;;5.70;;
3873;SDS011;1952;50.872;6.692;2023-07-24T04:11:11;6.50;;;5.83;;
3873;SDS011;1952;50.872;6.692;2023-07-24T04:13:39;6.50;;;5.37;;
3873;SDS011;1952;50.872;6.692;2023-07-24T04:16:07;7.77;;;5.80;;
3873;SDS011;1952;50.872;6.692;2023-07-24T04:18:36;9.73;;;6.10;;
3873;SDS011;1952;50.872;6.692;2023-07-24T04:21:05;7.67;;;5.80;;
3873;SDS011;1952;50.872;6.692;2023-07-24T04:23:33;10.40;;;5.40;;
3873;SDS011;1952;50.872;6.692;2023-07-24T04:26:03;10.03;;;6.13;;
3873;SDS011;1952;50.872;6.692;2023-07-24T04:28:31;9.13;;;5.27;;
3873;SDS011;1952;50.872;6.692;2023-07-24T04:31:00;7.10;;;5.80;;
3873;SDS011;1952;50.872;6.692;2023-07-24T04:33:28;9.73;;;5.83;;
3873;SDS011;1952;50.872;6.692;2023-07-24T04:36:10;8.03;;;5.97;;
3873;SDS011;1952;50.872;6.692;2023-07-24T04:38:43;7.70;;;5.70;;
3873;SDS011;1952;50.872;6.692;2023-07-24T04:41:12;7.20;;;5.70;;
3873;SDS011;1952;50.872;6.692;2023-07-24T04:43:40;7.33;;;6.23;;
3873;SDS011;1952;50.872;6.692;2023-07-24T04:46:09;5.57;;;5.07;;
3873;SDS011;1952;50.872;6.692;2023-07-24T04:48:37;6.83;;;5.80;;
3873;SDS011;1952;50.872;6.692;2023-07-24T04:51:05;8.80;;;5.47;;
3873;SDS011;1952;50.872;6.692;2023-07-24T04:53:35;8.00;;;5.90;;
3873;SDS011;1952;50.872;6.692;2023-07-24T04:56:03;7.43;;;4.80;;
3873;SDS011;1952;50.872;6.692;2023-07-24T04:58:31;10.37;;;5.50;;
3873;SDS011;1952;50.872;6.692;2023-07-24T05:01:02;8.67;;;5.23;;
3873;SDS011;1952;50.872;6.692;2023-07-24T05:03:30;5.53;;;5.03;;
3873;SDS011;1952;50.872;6.692;2023-07-24T05:05:58;6.77;;;5.57;;
3873;SDS011;1952;50.872;6.692;2023-07-24T05:08:27;5.43;;;4.70;;
3873;SDS011;1952;50.872;6.692;2023-07-24T05:10:56;6.10;;;4.77;;
3873;SDS011;1952;50.872;6.692;2023-07-24T05:13:25;6.63;;;5.70;;
3873;SDS011;1952;50.872;6.692;2023-07-24T05:15:53;5.70;;;4.80;;
3873;SDS011;1952;50.872;6.692;2023-07-24T05:18:21;10.23;;;5.40;;
3873;SDS011;1952;50.872;6.692;2023-07-24T05:20:50;4.77;;;4.27;;
3873;SDS011;1952;50.872;6.692;2023-07-24T05:23:18;4.70;;;4.20;;
3873;SDS011;1952;50.872;6.692;2023-07-24T05:25:47;6.90;;;5.80;;
3873;SDS011;1952;50.872;6.692;2023-07-24T05:28:16;8.30;;;5.20;;
3873;SDS011;1952;50.872;6.692;2023-07-24T05:30:44;6.03;;;4.83;;
3873;SDS011;1952;50.872;6.692;2023-07-24T05:33:13;8.67;;;4.50;;
3873;SDS011;1952;50.872;6.692;2023-07-24T05:35:41;6.30;;;5.00;;
3873;SDS011;1952;50.872;6.692;2023-07-24T05:38:10;6.40;;;4.43;;
3873;SDS011;1952;50.872;6.692;2023-07-24T05:40:38;5.90;;;5.30;;
3873;SDS011;1952;50.872;6.692;2023-07-24T05:43:07;6.53;;;4.40;;
3873;SDS011;1952;50.872;6.692;2023-07-24T05:45:37;5.73;;;4.10;;
3873;SDS011;1952;50.872;6.692;2023-07-24T05:48:05;5.10;;;4.30;;
3873;SDS011;1952;50.872;6.692;2023-07-24T05:50:33;5.63;;;4.60;;
3873;SDS011;1952;50.872;6.692;2023-07-24T05:53:01;4.90;;;4.40;;
3873;SDS011;1952;50.872;6.692;2023-07-24T05:55:30;6.27;;;4.03;;
3873;SDS011;1952;50.872;6.692;2023-07-24T05:57:58;7.50;;;5.30;;
3873;SDS011;1952;50.872;6.692;2023-07-24T06:00:26;7.87;;;4.57;;
3873;SDS011;1952;50.872;6.692;2023-07-24T06:02:57;7.13;;;4.70;;
3873;SDS011;1952;50.872;6.692;2023-07-24T06:05:25;5.83;;;4.07;;
3873;SDS011;1952;50.872;6.692;2023-07-24T06:07:53;4.43;;;3.67;;
3873;SDS011;1952;50.872;6.692;2023-07-24T06:10:22;5.10;;;4.60;;
3873;SDS011;1952;50.872;6.692;2023-07-24T06:12:50;3.83;;;3.40;;
3873;SDS011;1952;50.872;6.692;2023-07-24T06:15:19;4.93;;;3.80;;
3873;SDS011;1952;50.872;6.692;2023-07-24T06:17:48;3.77;;;3.47;;
3873;SDS011;1952;50.872;6.692;2023-07-24T06:20:21;4.97;;;4.17;;
3873;SDS011;1952;50.872;6.692;2023-07-24T06:22:50;5.53;;;3.93;;
3873;SDS011;1952;50.872;6.692;2023-07-24T06:25:21;4.30;;;3.90;;
3873;SDS011;1952;50.872;6.692;2023-07-24T06:27:50;6.23;;;4.00;;
3873;SDS011;1952;50.872;6.692;2023-07-24T06:30:18;4.50;;;4.10;;
3873;SDS011;1952;50.872;6.692;2023-07-24T06:32:47;4.63;;;4.23;;
3873;SDS011;1952;50.872;6.692;2023-07-24T06:35:16;5.17;;;4.33;;
3873;SDS011;1952;50.872;6.692;2023-07-24T06:37:45;4.33;;;3.93;;
3873;SDS011;1952;50.872;6.692;2023-07-24T06:40:14;4.47;;;3.93;;
3873;SDS011;1952;50.872;6.692;2023-07-24T06:42:42;4.07;;;3.67;;
3873;SDS011;1952;50.872;6.692;2023-07-24T06:45:11;4.47;;;4.07;;
3873;SDS011;1952;50.872;6.692;2023-07-24T06:47:39;6.30;;;3.90;;
3873;SDS011;1952;50.872;6.692;2023-07-24T06:50:07;5.63;;;3.40;;
3873;SDS011;1952;50.872;6.692;2023-07-24T06:52:36;4.53;;;3.90;;
3873;SDS011;1952;50.872;6.692;2023-07-24T06:55:06;3.67;;;3.37;;
3873;SDS011;1952;50.872;6.692;2023-07-24T06:57:36;4.30;;;3.47;;
3873;SDS011;1952;50.872;6.692;2023-07-24T07:00:05;3.60;;;3.30;;
3873;SDS011;1952;50.872;6.692;2023-07-24T07:02:38;5.63;;;3.90;;
3873;SDS011;1952;50.872;6.692;2023-07-24T07:05:07;5.53;;;3.70;;
3873;SDS011;1952;50.872;6.692;2023-07-24T07:07:36;4.23;;;3.80;;
3873;SDS011;1952;50.872;6.692;2023-07-24T07:10:10;3.93;;;3.57;;
3873;SDS011;1952;50.872;6.692;2023-07-24T07:12:39;4.90;;;3.50;;
3873;SDS011;1952;50.872;6.692;2023-07-24T07:15:07;4.27;;;3.13;;
3873;SDS011;1952;50.872;6.692;2023-07-24T07:17:37;3.73;;;3.40;;
3873;SDS011;1952;50.872;6.692;2023-07-24T07:20:06;5.30;;;4.20;;
3873;SDS011;1952;50.872;6.692;2023-07-24T07:22:34;4.23;;;3.83;;
3873;SDS011;1952;50.872;6.692;2023-07-24T07:25:03;4.23;;;3.90;;
3873;SDS011;1952;50.872;6.692;2023-07-24T07:27:33;5.00;;;4.20;;
3873;SDS011;1952;50.872;6.692;2023-07-24T07:30:01;3.93;;;3.53;;
3873;SDS011;1952;50.872;6.692;2023-07-24T07:32:31;3.73;;;3.43;;
3873;SDS011;1952;50.872;6.692;2023-07-24T07:35:00;4.37;;;3.97;;
3873;SDS011;1952;50.872;6.692;2023-07-24T07:37:31;3.80;;;3.40;;
3873;SDS011;1952;50.872;6.692;2023-07-24T07:39:59;4.30;;;3.90;;
3873;SDS011;1952;50.872;6.692;2023-07-24T07:42:35;4.23;;;3.83;;
3873;SDS011;1952;50.872;6.692;2023-07-24T07:45:17;4.10;;;3.27;;
3873;SDS011;1952;50.872;6.692;2023-07-24T07:47:46;3.60;;;3.30;;
3873;SDS011;1952;50.872;6.692;2023-07-24T07:50:14;5.33;;;4.50;;
3873;SDS011;1952;50.872;6.692;2023-07-24T07:52:44;6.40;;;4.10;;
3873;SDS011;1952;50.872;6.692;2023-07-24T07:55:13;6.23;;;5.00;;
3873;SDS011;1952;50.872;6.692;2023-07-24T07:57:49;9.17;;;4.47;;
3873;SDS011;1952;50.872;6.692;2023-07-24T08:00:18;6.13;;;4.37;;
3873;SDS011;1952;50.872;6.692;2023-07-24T08:02:47;5.87;;;3.53;;
3873;SDS011;1952;50.872;6.692;2023-07-24T08:05:16;4.43;;;3.83;;
3873;SDS011;1952;50.872;6.692;2023-07-24T08:07:47;4.07;;;3.70;;
3873;SDS011;1952;50.872;6.692;2023-07-24T08:10:15;3.90;;;3.60;;
3873;SDS011;1952;50.872;6.692;2023-07-24T08:12:44;5.30;;;4.80;;
3873;SDS011;1952;50.872;6.692;2023-07-24T08:15:13;4.37;;;3.97;;
3873;SDS011;1952;50.872;6.692;2023-07-24T08:17:43;4.50;;;3.93;;
3873;SDS011;1952;50.872;6.692;2023-07-24T08:20:13;3.70;;;3.40;;
3873;SDS011;1952;50.872;6.692;2023-07-24T08:22:42;4.23;;;3.80;;
3873;SDS011;1952;50.872;6.692;2023-07-24T08:25:14;5.27;;;4.20;;
3873;SDS011;1952;50.872;6.692;2023-07-24T08:27:42;4.70;;;4.30;;
3873;SDS011;1952;50.872;6.692;2023-07-24T08:30:32;5.20;;;4.00;;
3873;SDS011;1952;50.872;6.692;2023-07-24T08:33:02;3.60;;;3.30;;
3873;SDS011;1952;50.872;6.692;2023-07-24T08:35:33;5.23;;;3.50;;
3873;SDS011;1952;50.872;6.692;2023-07-24T08:38:09;4.40;;;3.97;;
3873;SDS011;1952;50.872;6.692;2023-07-24T08:40:38;4.00;;;3.60;;
3873;SDS011;1952;50.872;6.692;2023-07-24T08:43:07;3.63;;;3.33;;
3873;SDS011;1952;50.872;6.692;2023-07-24T08:45:48;3.60;;;3.30;;
3873;SDS011;1952;50.872;6.692;2023-07-24T08:48:17;3.80;;;3.50;;
3873;SDS011;1952;50.872;6.692;2023-07-24T08:50:48;3.97;;;3.67;;
3873;SDS011;1952;50.872;6.692;2023-07-24T08:53:18;5.00;;;3.70;;
3873;SDS011;1952;50.872;6.692;2023-07-24T08:55:48;3.73;;;3.43;;
3873;SDS011;1952;50.872;6.692;2023-07-24T08:58:16;3.50;;;3.20;;
3873;SDS011;1952;50.872;6.692;2023-07-24T09:00:47;3.70;;;3.13;;
3873;SDS011;1952;50.872;6.692;2023-07-24T09:03:16;6.23;;;3.33;;
3873;SDS011;1952;50.872;6.692;2023-07-24T09:05:53;3.10;;;2.90;;
3873;SDS011;1952;50.872;6.692;2023-07-24T09:08:30;4.33;;;3.10;;
3873;SDS011;1952;50.872;6.692;2023-07-24T09:11:10;3.50;;;3.20;;
3873;SDS011;1952;50.872;6.692;2023-07-24T09:13:41;4.57;;;3.20;;
3873;SDS011;1952;50.872;6.692;2023-07-24T09:16:21;3.60;;;3.30;;
3873;SDS011;1952;50.872;6.692;2023-07-24T09:18:51;2.83;;;2.60;;
3873;SDS011;1952;50.872;6.692;2023-07-24T09:24:11;3.20;;;2.90;;
3873;SDS011;1952;50.872;6.692;2023-07-24T09:26:48;4.83;;;3.73;;
3873;SDS011;1952;50.872;6.692;2023-07-24T09:29:17;3.37;;;3.07;;
3873;SDS011;1952;50.872;6.692;2023-07-24T09:31:48;3.30;;;2.97;;
3873;SDS011;1952;50.872;6.692;2023-07-24T09:34:17;3.60;;;3.30;;
3873;SDS011;1952;50.872;6.692;2023-07-24T09:36:46;3.97;;;2.93;;
3873;SDS011;1952;50.872;6.692;2023-07-24T09:39:15;4.40;;;2.90;;
3873;SDS011;1952;50.872;6.692;2023-07-24T09:41:50;3.80;;;3.17;;
3873;SDS011;1952;50.872;6.692;2023-07-24T09:44:19;3.67;;;3.37;;
3873;SDS011;1952;50.872;6.692;2023-07-24T09:46:49;4.10;;;3.03;;
3873;SDS011;1952;50.872;6.692;2023-07-24T09:49:37;4.23;;;3.00;;
3873;SDS011;1952;50.872;6.692;2023-07-24T09:52:06;4.33;;;3.13;;
3873;SDS011;1952;50.872;6.692;2023-07-24T09:54:42;3.70;;;3.40;;
3873;SDS011;1952;50.872;6.692;2023-07-24T09:57:13;3.17;;;2.97;;
3873;SDS011;1952;50.872;6.692;2023-07-24T09:59:48;3.00;;;2.60;;
3873;SDS011;1952;50.872;6.692;2023-07-24T10:02:19;3.40;;;3.10;;
3873;SDS011;1952;50.872;6.692;2023-07-24T10:04:48;4.40;;;3.07;;
3873;SDS011;1952;50.872;6.692;2023-07-24T10:07:18;3.40;;;3.10;;
3873;SDS011;1952;50.872;6.692;2023-07-24T10:09:49;3.90;;;3.57;;
3873;SDS011;1952;50.872;6.692;2023-07-24T10:12:18;4.00;;;3.07;;
3873;SDS011;1952;50.872;6.692;2023-07-24T10:14:49;3.70;;;3.40;;
3873;SDS011;1952;50.872;6.692;2023-07-24T10:17:33;3.33;;;3.00;;
3873;SDS011;1952;50.872;6.692;2023-07-24T10:20:03;3.20;;;2.90;;
3873;SDS011;1952;50.872;6.692;2023-07-24T10:22:32;3.53;;;3.23;;
3873;SDS011;1952;50.872;6.692;2023-07-24T10:25:01;3.13;;;2.93;;
3873;SDS011;1952;50.872;6.692;2023-07-24T10:27:29;3.60;;;3.30;;
3873;SDS011;1952;50.872;6.692;2023-07-24T10:30:00;3.20;;;2.90;;
3873;SDS011;1952;50.872;6.692;2023-07-24T10:32:48;3.17;;;2.87;;
3873;SDS011;1952;50.872;6.692;2023-07-24T10:35:22;3.70;;;3.13;;
3873;SDS011;1952;50.872;6.692;2023-07-24T10:37:58;3.67;;;3.13;;
3873;SDS011;1952;50.872;6.692;2023-07-24T10:40:27;3.57;;;3.27;;
3873;SDS011;1952;50.872;6.692;2023-07-24T10:45:48;3.37;;;3.07;;
3873;SDS011;1952;50.872;6.692;2023-07-24T10:48:19;3.13;;;2.80;;
3873;SDS011;1952;50.872;6.692;2023-07-24T10:50:49;3.10;;;2.90;;
3873;SDS011;1952;50.872;6.692;2023-07-24T10:53:28;3.33;;;3.03;;
3873;SDS011;1952;50.872;6.692;2023-07-24T10:56:00;3.90;;;3.00;;
3873;SDS011;1952;50.872;6.692;2023-07-24T10:58:29;3.27;;;2.67;;
3873;SDS011;1952;50.872;6.692;2023-07-24T11:00:58;3.57;;;2.77;;
3873;SDS011;1952;50.872;6.692;2023-07-24T11:03:29;3.77;;;3.37;;
3873;SDS011;1952;50.872;6.692;2023-07-24T11:05:59;4.63;;;3.30;;
3873;SDS011;1952;50.872;6.692;2023-07-24T11:08:27;3.70;;;3.17;;
3873;SDS011;1952;50.872;6.692;2023-07-24T11:11:02;3.37;;;2.87;;
3873;SDS011;1952;50.872;6.692;2023-07-24T11:13:33;3.30;;;3.07;;
3873;SDS011;1952;50.872;6.692;2023-07-24T11:16:03;3.20;;;2.93;;
3873;SDS011;1952;50.872;6.692;2023-07-24T11:18:43;3.47;;;3.17;;
3873;SDS011;1952;50.872;6.692;2023-07-24T11:21:29;3.47;;;3.10;;
3873;SDS011;1952;50.872;6.692;2023-07-24T11:24:09;3.50;;;2.63;;
3873;SDS011;1952;50.872;6.692;2023-07-24T11:26:40;3.80;;;2.90;;
3873;SDS011;1952;50.872;6.692;2023-07-24T11:33:10;3.77;;;2.10;;
3873;SDS011;1952;50.872;6.692;2023-07-24T11:38:55;2.17;;;1.97;;
3873;SDS011;1952;50.872;6.692;2023-07-24T11:41:33;4.43;;;2.30;;
3873;SDS011;1952;50.872;6.692;2023-07-24T11:44:33;2.33;;;2.13;;
3873;SDS011;1952;50.872;6.692;2023-07-24T11:47:23;3.80;;;2.70;;
3873;SDS011;1952;50.872;6.692;2023-07-24T11:50:21;3.30;;;2.77;;
3873;SDS011;1952;50.872;6.692;2023-07-24T11:53:22;2.83;;;2.53;;
3873;SDS011;1952;50.872;6.692;2023-07-24T11:56:31;3.70;;;2.90;;
3873;SDS011;1952;50.872;6.692;2023-07-24T11:59:28;3.63;;;3.27;;
3873;SDS011;1952;50.872;6.692;2023-07-24T12:02:05;3.10;;;2.80;;
3873;SDS011;1952;50.872;6.692;2023-07-24T12:05:11;3.70;;;2.90;;
3873;SDS011;1952;50.872;6.692;2023-07-24T12:07:50;7.30;;;2.60;;
3873;SDS011;1952;50.872;6.692;2023-07-24T12:10:31;2.70;;;2.50;;
3873;SDS011;1952;50.872;6.692;2023-07-24T12:13:22;4.60;;;3.33;;
3873;SDS011;1952;50.872;6.692;2023-07-24T12:15:58;3.37;;;2.90;;
3873;SDS011;1952;50.872;6.692;2023-07-24T12:18:43;4.50;;;3.47;;
3873;SDS011;1952;50.872;6.692;2023-07-24T13:17:34;2.50;;;2.10;;
3873;SDS011;1952;50.872;6.692;2023-07-24T13:20:05;1.87;;;1.77;;
3873;SDS011;1952;50.872;6.692;2023-07-24T13:25:44;2.30;;;1.90;;
3873;SDS011;1952;50.872;6.692;2023-07-24T13:28:44;2.13;;;1.93;;
3873;SDS011;1952;50.872;6.692;2023-07-24T13:31:42;1.83;;;1.73;;
3873;SDS011;1952;50.872;6.692;2023-07-24T13:44:42;2.53;;;2.33;;
3873;SDS011;1952;50.872;6.692;2023-07-24T13:47:26;2.00;;;1.83;;
3873;SDS011;1952;50.872;6.692;2023-07-24T13:50:24;3.37;;;3.07;;
3873;SDS011;1952;50.872;6.692;2023-07-24T13:56:27;2.40;;;2.20;;
3873;SDS011;1952;50.872;6.692;2023-07-24T13:59:14;3.63;;;2.70;;
3873;SDS011;1952;50.872;6.692;2023-07-24T14:01:53;2.00;;;1.80;;
3873;SDS011;1952;50.872;6.692;2023-07-24T14:04:29;3.53;;;2.50;;
3873;SDS011;1952;50.872;6.692;2023-07-24T14:07:40;4.20;;;2.07;;
3873;SDS011;1952;50.872;6.692;2023-07-24T14:10:33;4.33;;;2.07;;
3873;SDS011;1952;50.872;6.692;2023-07-24T14:13:03;2.60;;;1.93;;
3873;SDS011;1952;50.872;6.692;2023-07-24T14:15:31;4.63;;;2.47;;
3873;SDS011;1952;50.872;6.692;2023-07-24T14:21:10;3.37;;;2.73;;
3873;SDS011;1952;50.872;6.692;2023-07-24T14:23:43;2.47;;;2.00;;
3873;SDS011;1952;50.872;6.692;2023-07-24T14:26:13;3.07;;;2.33;;
3873;SDS011;1952;50.872;6.692;2023-07-24T14:28:48;2.10;;;1.73;;
3873;SDS011;1952;50.872;6.692;2023-07-24T14:31:22;2.40;;;2.20;;
3873;SDS011;1952;50.872;6.692;2023-07-24T14:33:52;2.70;;;2.30;;
3873;SDS011;1952;50.872;6.692;2023-07-24T14:36:29;3.17;;;2.03;;
3873;SDS011;1952;50.872;6.692;2023-07-24T14:39:00;1.73;;;1.63;;
3873;SDS011;1952;50.872;6.692;2023-07-24T14:41:33;2.07;;;1.87;;
3873;SDS011;1952;50.872;6.692;2023-07-24T14:44:17;2.40;;;2.13;;
3873;SDS011;1952;50.872;6.692;2023-07-24T14:46:55;2.20;;;2.00;;
3873;SDS011;1952;50.872;6.692;2023-07-24T14:49:32;1.90;;;1.77;;
3873;SDS011;1952;50.872;6.692;2023-07-24T14:52:05;2.73;;;2.53;;
3873;SDS011;1952;50.872;6.692;2023-07-24T14:54:45;2.53;;;1.80;;
3873;SDS011;1952;50.872;6.692;2023-07-24T14:57:14;2.30;;;2.10;;
3873;SDS011;1952;50.872;6.692;2023-07-24T15:00:05;4.80;;;2.20;;
3873;SDS011;1952;50.872;6.692;2023-07-24T15:02:35;2.40;;;2.20;;
3873;SDS011;1952;50.872;6.692;2023-07-24T15:05:18;2.70;;;2.50;;
3873;SDS011;1952;50.872;6.692;2023-07-24T15:07:49;7.00;;;2.80;;
3873;SDS011;1952;50.872;6.692;2023-07-24T15:10:17;2.37;;;2.17;;
3873;SDS011;1952;50.872;6.692;2023-07-24T15:12:47;3.33;;;2.37;;
3873;SDS011;1952;50.872;6.692;2023-07-24T15:15:16;3.63;;;2.53;;
3873;SDS011;1952;50.872;6.692;2023-07-24T15:17:44;3.77;;;2.93;;
3873;SDS011;1952;50.872;6.692;2023-07-24T15:20:14;3.00;;;2.27;;
3873;SDS011;1952;50.872;6.692;2023-07-24T15:22:42;2.90;;;2.33;;
3873;SDS011;1952;50.872;6.692;2023-07-24T15:25:12;3.13;;;2.33;;
3873;SDS011;1952;50.872;6.692;2023-07-24T15:27:40;2.73;;;1.77;;
3873;SDS011;1952;50.872;6.692;2023-07-24T15:30:08;3.10;;;2.60;;
3873;SDS011;1952;50.872;6.692;2023-07-24T15:32:37;2.70;;;2.50;;
3873;SDS011;1952;50.872;6.692;2023-07-24T15:35:05;2.87;;;2.67;;
3873;SDS011;1952;50.872;6.692;2023-07-24T15:37:34;2.63;;;2.37;;
3873;SDS011;1952;50.872;6.692;2023-07-24T15:40:02;3.00;;;2.67;;
3873;SDS011;1952;50.872;6.692;2023-07-24T15:42:32;3.13;;;2.70;;
3873;SDS011;1952;50.872;6.692;2023-07-24T15:45:01;2.27;;;2.07;;
3873;SDS011;1952;50.872;6.692;2023-07-24T15:47:29;2.60;;;2.30;;
3873;SDS011;1952;50.872;6.692;2023-07-24T15:49:58;2.57;;;2.33;;
3873;SDS011;1952;50.872;6.692;2023-07-24T15:52:28;2.40;;;2.20;;
3873;SDS011;1952;50.872;6.692;2023-07-24T15:54:56;2.60;;;2.40;;
3873;SDS011;1952;50.872;6.692;2023-07-24T15:57:24;2.83;;;2.63;;
3873;SDS011;1952;50.872;6.692;2023-07-24T15:59:53;2.50;;;2.30;;
3873;SDS011;1952;50.872;6.692;2023-07-24T16:02:23;2.90;;;2.63;;
3873;SDS011;1952;50.872;6.692;2023-07-24T16:04:53;3.07;;;2.40;;
3873;SDS011;1952;50.872;6.692;2023-07-24T16:07:23;3.40;;;2.70;;
3873;SDS011;1952;50.872;6.692;2023-07-24T16:09:51;3.23;;;2.83;;
3873;SDS011;1952;50.872;6.692;2023-07-24T16:12:19;3.63;;;2.90;;
3873;SDS011;1952;50.872;6.692;2023-07-24T16:14:49;3.40;;;3.10;;
3873;SDS011;1952;50.872;6.692;2023-07-24T16:17:19;3.30;;;2.67;;
3873;SDS011;1952;50.872;6.692;2023-07-24T16:19:47;3.13;;;2.83;;
3873;SDS011;1952;50.872;6.692;2023-07-24T16:22:16;3.10;;;2.80;;
3873;SDS011;1952;50.872;6.692;2023-07-24T16:24:44;3.53;;;3.23;;
3873;SDS011;1952;50.872;6.692;2023-07-24T16:27:12;2.87;;;2.63;;
3873;SDS011;1952;50.872;6.692;2023-07-24T16:29:40;3.37;;;3.07;;
3873;SDS011;1952;50.872;6.692;2023-07-24T16:32:09;3.10;;;2.90;;
3873;SDS011;1952;50.872;6.692;2023-07-24T16:34:39;4.90;;;3.20;;
3873;SDS011;1952;50.872;6.692;2023-07-24T16:37:07;3.73;;;3.43;;
3873;SDS011;1952;50.872;6.692;2023-07-24T16:39:37;3.57;;;3.27;;
3873;SDS011;1952;50.872;6.692;2023-07-24T16:42:05;3.83;;;3.43;;
3873;SDS011;1952;50.872;6.692;2023-07-24T16:44:33;3.57;;;3.30;;
3873;SDS011;1952;50.872;6.692;2023-07-24T16:47:03;3.80;;;3.30;;
3873;SDS011;1952;50.872;6.692;2023-07-24T16:49:34;4.10;;;3.80;;
3873;SDS011;1952;50.872;6.692;2023-07-24T16:52:04;4.47;;;3.80;;
3873;SDS011;1952;50.872;6.692;2023-07-24T16:54:32;4.00;;;3.50;;
3873;SDS011;1952;50.872;6.692;2023-07-24T16:57:01;3.90;;;3.50;;
3873;SDS011;1952;50.872;6.692;2023-07-24T16:59:29;4.03;;;3.43;;
3873;SDS011;1952;50.872;6.692;2023-07-24T17:01:59;3.90;;;3.50;;
3873;SDS011;1952;50.872;6.692;2023-07-24T17:04:27;3.20;;;2.77;;
3873;SDS011;1952;50.872;6.692;2023-07-24T17:06:56;3.77;;;3.47;;
3873;SDS011;1952;50.872;6.692;2023-07-24T17:09:25;3.50;;;3.20;;
3873;SDS011;1952;50.872;6.692;2023-07-24T17:11:54;4.07;;;3.77;;
3873;SDS011;1952;50.872;6.692;2023-07-24T17:14:22;4.20;;;3.80;;
3873;SDS011;1952;50.872;6.692;2023-07-24T17:16:50;3.70;;;3.30;;
3873;SDS011;1952;50.872;6.692;2023-07-24T17:19:18;3.30;;;3.00;;
3873;SDS011;1952;50.872;6.692;2023-07-24T17:21:47;4.90;;;3.50;;
3873;SDS011;1952;50.872;6.692;2023-07-24T17:24:15;3.77;;;3.47;;
3873;SDS011;1952;50.872;6.692;2023-07-24T17:26:47;4.03;;;3.60;;
3873;SDS011;1952;50.872;6.692;2023-07-24T17:29:15;3.47;;;3.17;;
3873;SDS011;1952;50.872;6.692;2023-07-24T17:31:44;3.80;;;3.10;;
3873;SDS011;1952;50.872;6.692;2023-07-24T17:34:12;3.17;;;2.80;;
3873;SDS011;1952;50.872;6.692;2023-07-24T17:36:40;3.80;;;3.50;;
3873;SDS011;1952;50.872;6.692;2023-07-24T17:39:08;3.50;;;2.97;;
3873;SDS011;1952;50.872;6.692;2023-07-24T17:41:37;2.83;;;2.60;;
3873;SDS011;1952;50.872;6.692;2023-07-24T17:44:06;3.37;;;3.00;;
3873;SDS011;1952;50.872;6.692;2023-07-24T17:46:35;3.40;;;3.10;;
3873;SDS011;1952;50.872;6.692;2023-07-24T17:49:03;3.40;;;2.83;;